DRBK1: Arkansas River, Derby, KS

Data processed at Fri Jan 05 2018 23:04


All information presented herein is the property of the government of the United States of America and may be revised or deleted at any time without prior notice.
Dissemination of this information without the expressed written consent of the Public Affairs Office, Tulsa District U.S. Army Corps of Engineers is strictly prohibited.
These data are gathered electronically and, as presented, have not undergone any form of quality control. These data are not guaranteed to be valid or correct.
Go to home page.
Go to station list.

Upstream stations:

Downstream station:
Previous Day
Next Day
Current Day
    
SHEF ID:       DRBK1     ARKANSAS R AT DERBY, KS
STATION TYPE:  

               PRECIP     STAGE  RIV-FLOW  BAT-LOAD
                   in        ft       cfs      volt
              Ccp-Rev   Ccp-Rev   Ccp-Rev   Ccp-Rev
(US/Central)
01/03 00:00      ----      1.41       261     12.33
01/03 01:00      ----      1.41       261     12.25
01/03 02:00      ----      1.41       261     12.25
01/03 03:00      ----      1.39       252     12.25
01/03 04:00      ----      1.37       243     12.17
01/03 05:00      ----      1.34       230     12.17
01/03 06:00      ----      1.32       222     12.17
01/03 07:00      ----      1.31       218     12.17
01/03 08:00      ----      1.28       206     12.09
01/03 09:00      ----      1.25       194     12.09
01/03 10:00      ----      1.26       198     13.13
01/03 11:00      ----      1.25       194     12.73
01/03 12:00      ----      1.26       198     13.21
01/03 13:00      ----      1.29       210     12.49
01/03 14:00      ----      1.34       230     13.21
01/03 15:00      ----      1.42       265     12.97
01/03 16:00      ----      1.48       293     12.97
01/03 17:00      ----      1.52       312     12.81
01/03 18:00      ----      1.53       317     12.65
01/03 19:00      ----      1.53       317     12.57
01/03 20:00      ----      1.50       302     12.57
01/03 21:00      ----      1.48       293     12.49
01/03 22:00      ----      1.44       274     12.49
01/03 23:00      ----      1.42       265     12.41